createdAt,value
2023-04-20T00:00:22.546Z,91.20
2023-04-20T00:02:49.311Z,91.90
2023-04-20T00:05:16.203Z,92.20
2023-04-20T00:07:42.926Z,92.40
2023-04-20T00:10:09.514Z,92.80
2023-04-20T00:12:36.114Z,93.10
2023-04-20T00:15:02.592Z,93.30
2023-04-20T00:17:29.143Z,94.40
2023-04-20T00:19:55.614Z,94.70
2023-04-20T00:22:22.281Z,94.70
2023-04-20T00:24:48.843Z,94.80
2023-04-20T00:27:15.423Z,95.20
2023-04-20T00:29:41.891Z,95.50
2023-04-20T00:32:08.382Z,96.10
2023-04-20T00:34:34.955Z,96.00
2023-04-20T00:37:01.500Z,95.90
2023-04-20T00:39:28.147Z,95.90
2023-04-20T00:41:54.870Z,95.80
2023-04-20T00:44:21.379Z,96.10
2023-04-20T00:46:47.967Z,96.30
2023-04-20T00:49:14.529Z,96.40
2023-04-20T00:51:41.102Z,96.30
2023-04-20T00:54:07.584Z,96.50
2023-04-20T00:56:34.182Z,96.60
2023-04-20T00:59:00.722Z,96.70
2023-04-20T01:01:27.383Z,97.40
2023-04-20T01:03:54.156Z,97.50
2023-04-20T01:06:21.112Z,97.70
2023-04-20T01:08:47.596Z,97.80
2023-04-20T01:11:14.200Z,97.80
2023-04-20T01:13:40.715Z,97.90
2023-04-20T01:16:07.802Z,97.90
2023-04-20T01:18:35.248Z,98.20
2023-04-20T01:21:01.762Z,98.10
2023-04-20T01:23:28.256Z,98.00
2023-04-20T01:25:54.791Z,98.00
2023-04-20T01:28:21.260Z,98.30
2023-04-20T01:30:47.750Z,98.20
2023-04-20T01:33:14.222Z,98.00
2023-04-20T01:35:40.720Z,98.00
2023-04-20T01:38:07.231Z,98.50
2023-04-20T01:40:33.751Z,98.80
2023-04-20T01:43:00.704Z,98.80
2023-04-20T01:45:28.328Z,99.00
2023-04-20T01:47:54.878Z,99.10
2023-04-20T01:50:22.693Z,99.40
2023-04-20T01:52:49.194Z,99.40
2023-04-20T01:55:15.821Z,99.70
2023-04-20T01:57:44.503Z,99.70
2023-04-20T02:00:11.011Z,99.90
2023-04-20T02:02:37.879Z,99.90
2023-04-20T02:05:04.583Z,99.90
2023-04-20T02:07:31.141Z,99.70
2023-04-20T02:09:57.608Z,99.80
2023-04-20T02:12:24.121Z,99.90
2023-04-20T02:14:50.724Z,99.90
2023-04-20T02:17:18.235Z,99.90
2023-04-20T02:19:44.813Z,98.80
2023-04-20T02:22:11.325Z,99.70
2023-04-20T02:24:37.792Z,99.70
2023-04-20T02:27:04.339Z,99.90
2023-04-20T02:29:30.874Z,99.90
2023-04-20T02:31:57.341Z,99.90
2023-04-20T02:34:23.835Z,99.90
2023-04-20T02:36:50.381Z,99.90
2023-04-20T02:39:17.149Z,99.90
2023-04-20T02:41:43.946Z,99.90
2023-04-20T02:44:10.523Z,99.90
2023-04-20T02:46:37.066Z,99.90
2023-04-20T02:49:03.581Z,99.90
2023-04-20T02:51:30.141Z,99.90
2023-04-20T02:53:56.677Z,99.90
2023-04-20T02:56:23.192Z,99.90
2023-04-20T02:58:51.968Z,99.90
2023-04-20T03:01:18.543Z,99.90
2023-04-20T03:03:45.292Z,99.90
2023-04-20T03:06:11.967Z,99.90
2023-04-20T03:08:38.438Z,99.90
2023-04-20T03:11:04.918Z,99.90
2023-04-20T03:13:31.417Z,99.90
2023-04-20T03:15:57.980Z,99.90
2023-04-20T03:18:24.498Z,99.90
2023-04-20T03:20:50.996Z,99.90
2023-04-20T03:23:17.459Z,99.90
2023-04-20T03:25:44.709Z,99.90
2023-04-20T03:28:11.226Z,99.90
2023-04-20T03:30:37.730Z,99.90
2023-04-20T03:33:04.258Z,99.90
2023-04-20T03:35:30.810Z,99.90
2023-04-20T03:37:57.304Z,99.90
2023-04-20T03:40:23.841Z,99.90
2023-04-20T03:42:50.578Z,99.90
2023-04-20T03:45:17.090Z,99.90
2023-04-20T03:47:43.633Z,99.90
2023-04-20T03:50:10.187Z,99.90
2023-04-20T03:52:36.737Z,99.90
2023-04-20T03:55:03.289Z,99.90
2023-04-20T03:57:29.814Z,99.90
2023-04-20T03:59:56.330Z,99.90
2023-04-20T04:02:23.621Z,99.90
2023-04-20T04:04:50.546Z,99.90
2023-04-20T04:07:17.217Z,99.90
2023-04-20T04:09:43.716Z,99.90
2023-04-20T04:12:10.216Z,99.90
2023-04-20T04:14:36.701Z,99.90
2023-04-20T04:17:03.326Z,99.90
2023-04-20T04:19:29.835Z,99.90
2023-04-20T04:21:56.317Z,99.90
2023-04-20T04:24:22.931Z,99.90
2023-04-20T04:26:49.753Z,99.90
2023-04-20T04:29:16.542Z,99.90
2023-04-20T04:31:43.270Z,99.90
2023-04-20T04:34:10.621Z,99.90
2023-04-20T04:36:37.181Z,99.90
2023-04-20T04:39:03.691Z,99.90
2023-04-20T04:41:30.365Z,99.90
2023-04-20T04:43:59.272Z,99.90
2023-04-20T04:46:26.002Z,99.90
2023-04-20T04:48:52.595Z,99.90
2023-04-20T04:51:19.101Z,99.90
2023-04-20T04:53:47.381Z,99.90
2023-04-20T04:56:13.902Z,99.90
2023-04-20T04:58:40.492Z,99.90
2023-04-20T05:01:06.970Z,99.90
2023-04-20T05:03:33.705Z,99.90
2023-04-20T05:06:00.632Z,99.90
2023-04-20T05:08:27.123Z,99.90
2023-04-20T05:10:53.614Z,99.90
2023-04-20T05:13:20.287Z,99.90
2023-04-20T05:15:46.794Z,99.90
2023-04-20T05:18:13.572Z,99.90
2023-04-20T05:20:40.108Z,99.90
2023-04-20T05:23:06.613Z,99.90
2023-04-20T05:25:33.148Z,99.90
2023-04-20T05:27:59.625Z,99.90
2023-04-20T05:30:26.196Z,99.90
2023-04-20T05:32:52.896Z,99.90
2023-04-20T05:35:19.598Z,99.90
2023-04-20T05:37:47.494Z,99.90
2023-04-20T05:40:15.090Z,99.90
2023-04-20T05:42:41.620Z,99.90
2023-04-20T05:45:08.111Z,99.90
2023-04-20T05:47:34.764Z,99.90
2023-04-20T05:50:01.347Z,99.90
2023-04-20T05:52:27.829Z,99.90
2023-04-20T05:54:54.338Z,99.90
2023-04-20T05:57:21.784Z,99.90
2023-04-20T05:59:48.264Z,99.90
2023-04-20T06:02:14.869Z,99.90
2023-04-20T06:04:42.523Z,99.90
2023-04-20T06:07:09.488Z,99.90
2023-04-20T06:09:35.979Z,99.90
2023-04-20T06:12:02.625Z,99.90
2023-04-20T06:14:29.167Z,99.90
2023-04-20T06:16:55.699Z,99.90
2023-04-20T06:19:22.501Z,99.90
2023-04-20T06:21:49.160Z,99.90
2023-04-20T06:24:15.655Z,99.90
2023-04-20T06:26:42.119Z,99.90
2023-04-20T06:29:08.692Z,99.90
2023-04-20T06:31:35.287Z,99.90
2023-04-20T06:34:01.817Z,99.90
2023-04-20T06:36:28.597Z,99.90
2023-04-20T06:38:55.174Z,99.90
2023-04-20T06:41:21.650Z,99.90
2023-04-20T06:43:48.164Z,99.90
2023-04-20T06:46:14.677Z,99.90
2023-04-20T06:48:41.215Z,99.90
2023-04-20T06:51:07.722Z,99.90
2023-04-20T06:53:34.272Z,99.90
2023-04-20T06:56:00.905Z,99.90
2023-04-20T06:58:27.428Z,99.90
2023-04-20T07:00:54.052Z,99.90
2023-04-20T07:03:20.904Z,99.90
2023-04-20T07:05:47.593Z,99.90
2023-04-20T07:08:15.782Z,99.90
2023-04-20T07:10:42.545Z,99.90
2023-04-20T07:13:09.058Z,99.90
2023-04-20T07:15:35.649Z,99.90
2023-04-20T07:18:02.301Z,99.90
2023-04-20T07:20:28.975Z,99.90
2023-04-20T07:22:55.536Z,99.90
2023-04-20T07:25:23.111Z,99.90
2023-04-20T07:27:49.633Z,99.90
2023-04-20T07:30:16.173Z,99.90
2023-04-20T07:32:42.785Z,99.90
2023-04-20T07:35:09.303Z,99.90
2023-04-20T07:37:36.108Z,99.90
2023-04-20T07:40:02.612Z,99.90
2023-04-20T07:42:29.223Z,99.90
2023-04-20T07:44:56.281Z,99.90
2023-04-20T07:47:22.987Z,99.90
2023-04-20T07:49:49.772Z,99.90
2023-04-20T07:52:17.269Z,99.90
2023-04-20T07:54:44.004Z,99.90
2023-04-20T07:57:11.102Z,99.90
2023-04-20T07:59:37.690Z,99.90
2023-04-20T08:02:04.322Z,99.90
2023-04-20T08:04:31.374Z,99.90
2023-04-20T08:06:58.064Z,99.90
2023-04-20T08:09:26.057Z,99.90
2023-04-20T08:11:52.581Z,99.90
2023-04-20T08:14:19.285Z,99.90
2023-04-20T08:16:46.234Z,99.90
2023-04-20T08:21:44.231Z,99.90
2023-04-20T08:24:10.793Z,99.90
2023-04-20T08:26:37.322Z,99.90
2023-04-20T08:29:03.820Z,99.90
2023-04-20T08:31:30.502Z,99.90
2023-04-20T08:33:57.065Z,99.90
2023-04-20T08:36:24.022Z,99.90
2023-04-20T08:38:51.152Z,99.90
2023-04-20T08:41:17.666Z,99.90
2023-04-20T08:43:44.151Z,99.90
2023-04-20T08:46:10.733Z,99.90
2023-04-20T08:48:37.270Z,99.90
2023-04-20T08:51:03.863Z,99.90
2023-04-20T08:53:30.434Z,99.90
2023-04-20T08:55:57.416Z,99.90
2023-04-20T08:58:23.917Z,99.90
2023-04-20T09:00:50.451Z,99.90
2023-04-20T09:03:17.294Z,99.90
2023-04-20T09:05:44.056Z,99.90
2023-04-20T09:08:10.556Z,99.90
2023-04-20T09:10:37.217Z,99.90
2023-04-20T09:13:03.749Z,99.90
2023-04-20T09:15:30.405Z,99.90
2023-04-20T09:17:56.961Z,99.90
2023-04-20T09:20:23.518Z,99.90
2023-04-20T09:22:50.763Z,99.90
2023-04-20T09:25:17.337Z,99.90
2023-04-20T09:27:43.849Z,99.90
2023-04-20T09:30:10.368Z,99.90
2023-04-20T09:32:36.864Z,99.90
2023-04-20T09:35:03.374Z,99.90
2023-04-20T09:37:30.524Z,99.90
2023-04-20T09:39:57.029Z,99.90
2023-04-20T09:42:23.598Z,99.90
2023-04-20T09:44:50.182Z,99.90
2023-04-20T09:47:16.716Z,99.90
2023-04-20T09:49:43.343Z,99.90
2023-04-20T09:52:09.882Z,99.90
2023-04-20T09:54:36.396Z,99.90
2023-04-20T09:57:04.144Z,99.90
2023-04-20T09:59:30.652Z,99.90
2023-04-20T10:01:57.166Z,99.90
2023-04-20T10:04:24.364Z,99.90
2023-04-20T10:06:51.118Z,99.90
2023-04-20T10:09:18.227Z,99.90
2023-04-20T10:11:53.309Z,99.90
2023-04-20T10:14:21.175Z,99.90
2023-04-20T10:16:47.904Z,99.90
2023-04-20T10:19:14.521Z,99.90
2023-04-20T10:21:41.020Z,99.90
2023-04-20T10:24:07.513Z,99.90
2023-04-20T10:26:34.006Z,99.90
2023-04-20T10:29:00.526Z,99.90
2023-04-20T10:31:27.110Z,99.90
2023-04-20T10:33:53.680Z,99.90
2023-04-20T10:36:20.187Z,99.90
2023-04-20T10:38:46.667Z,99.90
2023-04-20T10:41:13.191Z,99.90
2023-04-20T10:43:43.022Z,99.90
2023-04-20T10:46:09.543Z,99.90
2023-04-20T10:48:36.054Z,99.90
2023-04-20T10:51:02.537Z,99.90
2023-04-20T10:53:29.076Z,99.90
2023-04-20T10:55:55.616Z,99.90
2023-04-20T10:58:22.341Z,99.90
2023-04-20T11:00:48.826Z,99.90
2023-04-20T11:03:15.372Z,99.90
2023-04-20T11:05:42.054Z,99.90
2023-04-20T11:08:08.553Z,99.90
2023-04-20T11:10:35.109Z,99.90
2023-04-20T11:13:01.709Z,99.90
2023-04-20T11:15:28.257Z,99.90
2023-04-20T11:17:54.794Z,99.90
2023-04-20T11:20:21.337Z,99.90
2023-04-20T11:22:47.806Z,99.90
2023-04-20T11:25:14.362Z,99.90
2023-04-20T11:27:41.124Z,99.90
2023-04-20T11:30:08.303Z,99.90
2023-04-20T11:32:35.003Z,99.90
2023-04-20T11:35:06.698Z,99.90
2023-04-20T11:37:33.798Z,99.90
2023-04-20T11:40:00.417Z,99.90
2023-04-20T11:42:27.597Z,99.90
2023-04-20T11:44:54.168Z,99.90
2023-04-20T11:47:20.707Z,99.90
2023-04-20T11:49:47.245Z,99.60
2023-04-20T11:52:13.705Z,99.90
2023-04-20T11:54:40.314Z,99.90
2023-04-20T11:57:07.461Z,99.90
2023-04-20T11:59:33.995Z,99.90
2023-04-20T12:02:04.547Z,99.90
2023-04-20T12:07:02.191Z,99.90
2023-04-20T12:09:30.314Z,99.90
2023-04-20T12:11:57.619Z,99.90
2023-04-20T12:14:24.220Z,99.90
2023-04-20T12:16:50.895Z,99.90
2023-04-20T12:19:17.690Z,99.90
2023-04-20T12:21:44.481Z,99.90
2023-04-20T12:24:11.016Z,98.70
2023-04-20T12:26:38.798Z,97.50
2023-04-20T12:29:05.583Z,97.50
2023-04-20T12:31:32.129Z,96.80
2023-04-20T12:33:58.824Z,96.80
2023-04-20T12:36:25.839Z,97.30
2023-04-20T12:38:52.466Z,97.40
2023-04-20T12:41:19.128Z,97.30
2023-04-20T12:43:45.629Z,97.40
2023-04-20T12:46:12.259Z,97.00
2023-04-20T12:48:38.769Z,97.10
2023-04-20T12:51:05.325Z,97.20
2023-04-20T12:53:31.855Z,97.10
2023-04-20T12:56:01.434Z,96.20
2023-04-20T12:58:28.396Z,97.80
2023-04-20T13:00:55.038Z,97.40
2023-04-20T13:03:21.676Z,96.70
2023-04-20T13:05:48.383Z,95.20
2023-04-20T13:08:14.878Z,95.70
2023-04-20T13:10:44.546Z,95.50
2023-04-20T13:13:11.179Z,94.70
2023-04-20T13:15:38.959Z,95.20
2023-04-20T13:18:06.317Z,93.40
2023-04-20T13:20:32.889Z,94.80
2023-04-20T13:22:59.622Z,93.10
2023-04-20T13:25:26.244Z,93.20
2023-04-20T13:27:52.838Z,93.50
2023-04-20T13:30:19.337Z,92.70
2023-04-20T13:32:45.867Z,92.90
2023-04-20T13:35:14.514Z,92.60
2023-04-20T13:37:41.024Z,92.60
2023-04-20T13:40:07.537Z,92.80
2023-04-20T13:42:34.139Z,92.90
2023-04-20T13:45:00.812Z,93.30
2023-04-20T13:47:27.381Z,93.50
2023-04-20T13:49:53.937Z,92.50
2023-04-20T13:52:20.476Z,93.00
2023-04-20T13:54:46.947Z,93.10
2023-04-20T13:57:13.459Z,92.00
2023-04-20T13:59:40.323Z,92.50
2023-04-20T14:02:06.844Z,92.70
2023-04-20T14:04:33.414Z,92.40
2023-04-20T14:06:59.920Z,92.40
2023-04-20T14:09:28.203Z,92.90
2023-04-20T14:11:57.087Z,93.90
2023-04-20T14:14:23.775Z,93.20
2023-04-20T14:16:50.249Z,93.80
2023-04-20T14:19:16.763Z,93.70
2023-04-20T14:21:47.196Z,93.10
2023-04-20T14:24:13.737Z,92.80
2023-04-20T14:26:40.223Z,93.30
2023-04-20T14:29:06.777Z,93.90
2023-04-20T14:31:34.528Z,93.60
2023-04-20T14:34:01.088Z,92.90
2023-04-20T14:36:27.880Z,93.50
2023-04-20T14:38:55.416Z,92.50
2023-04-20T14:41:22.060Z,93.20
2023-04-20T14:43:48.628Z,92.40
2023-04-20T14:46:15.520Z,93.00
2023-04-20T14:48:42.080Z,93.90
2023-04-20T14:51:08.601Z,93.30
2023-04-20T14:53:35.155Z,93.90
2023-04-20T14:56:01.624Z,93.70
2023-04-20T14:58:28.120Z,94.10
2023-04-20T15:00:54.612Z,92.70
2023-04-20T15:03:21.297Z,92.70
2023-04-20T15:05:48.273Z,91.60
2023-04-20T15:08:14.877Z,91.00
2023-04-20T15:10:41.369Z,91.80
2023-04-20T15:13:07.998Z,92.00
2023-04-20T15:15:47.776Z,89.90
2023-04-20T15:18:15.761Z,90.30
2023-04-20T15:20:42.267Z,90.10
2023-04-20T15:23:08.795Z,89.10
2023-04-20T15:25:35.290Z,89.50
2023-04-20T15:28:01.745Z,89.10
2023-04-20T15:30:28.220Z,89.10
2023-04-20T15:32:54.725Z,90.40
2023-04-20T15:35:21.271Z,91.10
2023-04-20T15:37:47.768Z,90.40
2023-04-20T15:40:15.446Z,90.90
2023-04-20T15:42:41.948Z,90.70
2023-04-20T15:45:08.670Z,90.90
2023-04-20T15:47:35.285Z,91.20
2023-04-20T15:50:03.129Z,91.40
2023-04-20T15:52:29.647Z,91.90
2023-04-20T15:54:56.175Z,91.60
2023-04-20T15:57:22.675Z,92.10
2023-04-20T15:59:49.207Z,92.70
2023-04-20T16:02:19.507Z,92.70
2023-04-20T16:04:50.041Z,92.60
2023-04-20T16:07:17.556Z,93.50
2023-04-20T16:09:44.652Z,94.10
2023-04-20T16:12:12.027Z,94.70
2023-04-20T16:14:38.938Z,95.70
2023-04-20T16:17:06.251Z,97.00
2023-04-20T16:19:34.683Z,97.40
2023-04-20T16:22:02.218Z,99.10
2023-04-20T16:24:32.339Z,99.90
2023-04-20T16:27:04.242Z,99.90
2023-04-20T16:29:31.528Z,99.90
2023-04-20T16:32:01.064Z,99.90
2023-04-20T16:34:28.426Z,99.90
2023-04-20T16:36:55.317Z,99.90
2023-04-20T16:39:21.821Z,99.90
2023-04-20T16:41:48.284Z,99.90
2023-04-20T16:44:16.052Z,99.90
2023-04-20T16:46:42.825Z,99.90
2023-04-20T16:49:09.442Z,99.90
2023-04-20T16:51:35.962Z,99.90
2023-04-20T16:54:02.448Z,99.90
2023-04-20T16:56:28.927Z,99.90
2023-04-20T16:58:55.575Z,99.90
2023-04-20T17:01:22.512Z,99.90
2023-04-20T17:03:49.247Z,99.90
2023-04-20T17:06:15.993Z,99.90
2023-04-20T17:08:42.503Z,99.90
2023-04-20T17:11:08.960Z,99.90
2023-04-20T17:13:35.462Z,99.90
2023-04-20T17:16:02.033Z,99.90
2023-04-20T17:18:28.586Z,99.90
2023-04-20T17:20:57.064Z,99.90
2023-04-20T17:23:23.580Z,99.90
2023-04-20T17:25:51.243Z,99.90
2023-04-20T17:28:17.774Z,99.90
2023-04-20T17:30:44.285Z,99.90
2023-04-20T17:33:12.210Z,99.90
2023-04-20T17:35:39.171Z,99.90
2023-04-20T17:38:05.703Z,99.90
2023-04-20T17:40:32.267Z,99.90
2023-04-20T17:42:58.750Z,99.90
2023-04-20T17:45:25.270Z,99.90
2023-04-20T17:47:53.537Z,99.90
2023-04-20T17:50:20.299Z,99.90
2023-04-20T17:52:46.829Z,99.90
2023-04-20T17:55:13.371Z,99.90
2023-04-20T17:57:39.923Z,99.90
2023-04-20T18:00:07.505Z,99.90
2023-04-20T18:02:34.078Z,99.90
2023-04-20T18:05:00.986Z,99.90
2023-04-20T18:07:27.588Z,99.90
2023-04-20T18:09:54.353Z,99.90
2023-04-20T18:12:21.411Z,99.90
2023-04-20T18:14:48.113Z,99.90
2023-04-20T18:17:14.647Z,99.90
2023-04-20T18:19:41.208Z,99.90
2023-04-20T18:22:08.748Z,99.90
2023-04-20T18:24:35.294Z,99.90
2023-04-20T18:27:01.926Z,99.90
2023-04-20T18:29:29.867Z,99.90
2023-04-20T18:31:59.105Z,99.90
2023-04-20T18:34:29.731Z,99.90
2023-04-20T18:36:56.542Z,99.90
2023-04-20T18:39:23.046Z,99.90
2023-04-20T18:41:49.559Z,99.90
2023-04-20T18:44:16.171Z,99.90
2023-04-20T18:46:42.821Z,99.90
2023-04-20T18:49:09.334Z,99.90
2023-04-20T18:51:35.873Z,99.90
2023-04-20T18:54:02.732Z,99.90
2023-04-20T18:56:29.328Z,99.90
2023-04-20T18:58:57.868Z,99.90
2023-04-20T19:01:24.690Z,99.90
2023-04-20T19:03:51.663Z,99.90
2023-04-20T19:06:18.338Z,99.90
2023-04-20T19:08:45.133Z,99.90
2023-04-20T19:11:11.660Z,99.90
2023-04-20T19:13:44.262Z,99.90
2023-04-20T19:16:11.350Z,99.90
2023-04-20T19:18:38.091Z,99.90
2023-04-20T19:21:05.459Z,99.90
2023-04-20T19:23:32.028Z,99.90
2023-04-20T19:25:58.604Z,99.90
2023-04-20T19:28:25.382Z,99.90
2023-04-20T19:30:52.169Z,99.90
2023-04-20T19:33:18.824Z,99.90
2023-04-20T19:35:50.424Z,99.90
2023-04-20T19:38:16.929Z,99.90
2023-04-20T19:40:43.641Z,99.90
2023-04-20T19:43:10.251Z,99.90
2023-04-20T19:45:36.795Z,99.90
2023-04-20T19:48:03.426Z,99.90
2023-04-20T19:50:30.014Z,99.90
2023-04-20T19:52:57.617Z,99.90
2023-04-20T19:55:24.253Z,99.90
2023-04-20T19:57:51.178Z,99.90
2023-04-20T20:00:17.956Z,99.90
2023-04-20T20:02:44.756Z,99.90
2023-04-20T20:05:11.402Z,99.90
2023-04-20T20:07:38.090Z,99.90
2023-04-20T20:10:04.633Z,99.90
2023-04-20T20:12:31.149Z,99.90
2023-04-20T20:14:57.738Z,99.90
2023-04-20T20:17:24.273Z,99.90
2023-04-20T20:19:53.641Z,99.90
2023-04-20T20:22:20.998Z,99.90
2023-04-20T20:24:47.856Z,99.90
2023-04-20T20:27:14.381Z,99.90
2023-04-20T20:29:41.101Z,99.90
2023-04-20T20:32:07.570Z,99.90
2023-04-20T20:34:34.078Z,99.90
2023-04-20T20:37:04.165Z,99.90
2023-04-20T20:39:31.251Z,99.90
2023-04-20T20:41:57.749Z,99.90
2023-04-20T20:44:25.198Z,99.90
2023-04-20T20:46:51.732Z,99.90
2023-04-20T20:49:18.552Z,99.90
2023-04-20T20:51:45.428Z,99.90
2023-04-20T20:54:11.980Z,99.90
2023-04-20T20:56:38.569Z,99.90
2023-04-20T20:59:05.138Z,99.90
2023-04-20T21:01:31.894Z,99.90
2023-04-20T21:03:58.684Z,99.90
2023-04-20T21:06:25.362Z,99.90
2023-04-20T21:08:51.926Z,99.90
2023-04-20T21:11:18.413Z,99.90
2023-04-20T21:13:44.982Z,99.90
2023-04-20T21:16:11.484Z,99.90
2023-04-20T21:18:38.112Z,99.90
2023-04-20T21:21:04.627Z,99.90
2023-04-20T21:23:31.153Z,99.90
2023-04-20T21:25:57.603Z,99.90
2023-04-20T21:28:24.095Z,99.90
2023-04-20T21:30:50.715Z,99.90
2023-04-20T21:33:17.234Z,99.90
2023-04-20T21:35:43.850Z,99.90
2023-04-20T21:38:10.531Z,99.90
2023-04-20T21:40:37.014Z,99.90
2023-04-20T21:43:03.635Z,99.90
2023-04-20T21:45:30.122Z,99.90
2023-04-20T21:47:56.634Z,99.90
2023-04-20T21:50:36.774Z,99.90
2023-04-20T21:53:03.285Z,99.90
2023-04-20T21:55:29.789Z,99.90
2023-04-20T21:57:56.317Z,99.90
2023-04-20T22:00:23.156Z,99.90
2023-04-20T22:02:50.461Z,99.90
2023-04-20T22:05:17.254Z,99.90
2023-04-20T22:07:45.031Z,99.90
2023-04-20T22:10:11.523Z,99.90
2023-04-20T22:12:40.311Z,99.90
2023-04-20T22:15:06.868Z,99.90
2023-04-20T22:17:33.512Z,99.90
2023-04-20T22:20:00.047Z,99.90
2023-04-20T22:22:26.516Z,99.90
2023-04-20T22:24:53.002Z,99.90
2023-04-20T22:27:19.480Z,99.90
2023-04-20T22:29:46.015Z,99.90
2023-04-20T22:32:12.476Z,99.90
2023-04-20T22:34:38.971Z,99.90
2023-04-20T22:37:06.256Z,99.90
2023-04-20T22:39:32.769Z,99.90
2023-04-20T22:41:59.633Z,99.90
2023-04-20T22:44:26.164Z,99.90
2023-04-20T22:46:53.008Z,99.90
2023-04-20T22:49:19.702Z,99.90
2023-04-20T22:51:46.361Z,99.90
2023-04-20T22:54:12.894Z,99.90
2023-04-20T22:56:39.374Z,99.90
2023-04-20T22:59:05.932Z,99.90
2023-04-20T23:01:32.454Z,99.90
2023-04-20T23:03:59.203Z,99.90
2023-04-20T23:06:29.528Z,99.90
2023-04-20T23:08:59.025Z,99.90
2023-04-20T23:11:26.613Z,99.90
2023-04-20T23:13:53.200Z,99.90
2023-04-20T23:16:19.700Z,99.90
2023-04-20T23:18:46.256Z,99.90
2023-04-20T23:21:12.781Z,99.90
2023-04-20T23:23:39.272Z,99.90
2023-04-20T23:26:05.866Z,99.90
2023-04-20T23:28:32.374Z,99.90
2023-04-20T23:30:58.872Z,99.90
2023-04-20T23:33:25.369Z,99.90
2023-04-20T23:35:51.852Z,99.90
2023-04-20T23:38:18.433Z,99.90
2023-04-20T23:40:45.055Z,99.90
2023-04-20T23:43:11.657Z,99.90
2023-04-20T23:45:38.199Z,99.90
2023-04-20T23:48:04.782Z,99.90
2023-04-20T23:50:31.340Z,99.90
2023-04-20T23:52:57.827Z,99.90
2023-04-20T23:55:24.414Z,99.90
2023-04-20T23:57:52.647Z,99.90
